sensor_id;sensor_type;location;lat;lon;timestamp;pressure;altitude;pressure_sealevel;temperature;humidity
41334;BME280;27078;46.428;6.256;2023-12-28T00:00:45;97027.91;;;3.48;70.68
41334;BME280;27078;46.428;6.256;2023-12-28T00:03:11;97025.09;;;3.43;70.52
41334;BME280;27078;46.428;6.256;2023-12-28T00:05:36;97021.41;;;3.37;71.23
41334;BME280;27078;46.428;6.256;2023-12-28T00:08:01;97024.47;;;3.41;71.47
41334;BME280;27078;46.428;6.256;2023-12-28T00:10:27;97022.94;;;3.45;71.07
41334;BME280;27078;46.428;6.256;2023-12-28T00:12:53;97026.56;;;3.50;71.77
41334;BME280;27078;46.428;6.256;2023-12-28T00:15:19;97020.34;;;3.55;71.66
41334;BME280;27078;46.428;6.256;2023-12-28T00:17:44;97031.31;;;3.55;71.88
41334;BME280;27078;46.428;6.256;2023-12-28T00:20:10;97020.56;;;3.53;72.29
41334;BME280;27078;46.428;6.256;2023-12-28T00:22:36;97019.75;;;3.53;72.05
41334;BME280;27078;46.428;6.256;2023-12-28T00:25:04;97020.34;;;3.55;72.07
41334;BME280;27078;46.428;6.256;2023-12-28T00:27:30;97010.44;;;3.54;71.47
41334;BME280;27078;46.428;6.256;2023-12-28T00:29:55;97010.94;;;3.51;71.44
41334;BME280;27078;46.428;6.256;2023-12-28T00:32:21;97013.59;;;3.46;70.69
41334;BME280;27078;46.428;6.256;2023-12-28T00:34:46;97017.59;;;3.38;71.30
41334;BME280;27078;46.428;6.256;2023-12-28T00:37:12;97024.47;;;3.41;71.84
41334;BME280;27078;46.428;6.256;2023-12-28T00:39:37;97010.53;;;3.42;72.17
41334;BME280;27078;46.428;6.256;2023-12-28T00:42:04;97006.97;;;3.42;72.13
41334;BME280;27078;46.428;6.256;2023-12-28T00:44:29;97017.94;;;3.42;72.61
41334;BME280;27078;46.428;6.256;2023-12-28T00:46:54;97011.03;;;3.39;72.63
41334;BME280;27078;46.428;6.256;2023-12-28T00:49:20;97010.53;;;3.42;70.75
41334;BME280;27078;46.428;6.256;2023-12-28T00:51:45;97010.59;;;3.30;71.53
41334;BME280;27078;46.428;6.256;2023-12-28T00:54:10;97026.31;;;3.18;71.06
41334;BME280;27078;46.428;6.256;2023-12-28T00:56:36;97028.97;;;3.13;72.75
41334;BME280;27078;46.428;6.256;2023-12-28T00:59:01;97029.91;;;3.19;72.80
41334;BME280;27078;46.428;6.256;2023-12-28T01:01:27;97027.16;;;3.36;72.52
41334;BME280;27078;46.428;6.256;2023-12-28T01:03:55;97022.59;;;3.41;71.59
41334;BME280;27078;46.428;6.256;2023-12-28T01:06:21;97024.75;;;3.22;72.14
41334;BME280;27078;46.428;6.256;2023-12-28T01:08:46;97033.88;;;3.11;72.28
41334;BME280;27078;46.428;6.256;2023-12-28T01:11:11;97034.28;;;3.20;72.51
41334;BME280;27078;46.428;6.256;2023-12-28T01:13:37;97027.50;;;3.22;73.69
41334;BME280;27078;46.428;6.256;2023-12-28T01:16:03;97027.22;;;3.24;73.86
41334;BME280;27078;46.428;6.256;2023-12-28T01:18:29;97034.72;;;3.28;73.50
41334;BME280;27078;46.428;6.256;2023-12-28T01:20:54;97030.41;;;3.33;73.24
41334;BME280;27078;46.428;6.256;2023-12-28T01:23:20;97029.63;;;3.37;73.60
41334;BME280;27078;46.428;6.256;2023-12-28T01:25:45;97037.03;;;3.37;73.68
41334;BME280;27078;46.428;6.256;2023-12-28T01:28:11;97035.63;;;3.34;73.63
41334;BME280;27078;46.428;6.256;2023-12-28T01:30:36;97031.50;;;3.31;72.75
41334;BME280;27078;46.428;6.256;2023-12-28T01:33:01;97044.38;;;3.31;73.69
41334;BME280;27078;46.428;6.256;2023-12-28T01:35:27;97037.38;;;3.40;72.60
41334;BME280;27078;46.428;6.256;2023-12-28T01:37:52;97025.56;;;3.23;70.63
41334;BME280;27078;46.428;6.256;2023-12-28T01:40:17;97030.72;;;3.19;71.10
41334;BME280;27078;46.428;6.256;2023-12-28T01:42:44;97027.97;;;3.02;71.16
41334;BME280;27078;46.428;6.256;2023-12-28T01:45:10;97022.63;;;2.96;72.39
41334;BME280;27078;46.428;6.256;2023-12-28T01:47:35;97031.00;;;2.89;72.52
41334;BME280;27078;46.428;6.256;2023-12-28T01:50:01;97035.94;;;2.87;72.07
41334;BME280;27078;46.428;6.256;2023-12-28T01:52:28;97041.31;;;2.82;73.04
41334;BME280;27078;46.428;6.256;2023-12-28T01:54:53;97050.94;;;2.84;72.36
41334;BME280;27078;46.428;6.256;2023-12-28T01:57:19;97057.25;;;2.85;73.68
41334;BME280;27078;46.428;6.256;2023-12-28T01:59:45;97071.06;;;2.90;74.72
41334;BME280;27078;46.428;6.256;2023-12-28T02:02:10;97067.09;;;2.98;74.32
41334;BME280;27078;46.428;6.256;2023-12-28T02:04:36;97073.84;;;3.07;73.70
41334;BME280;27078;46.428;6.256;2023-12-28T02:07:01;97079.44;;;3.12;74.18
41334;BME280;27078;46.428;6.256;2023-12-28T02:09:27;97085.31;;;3.04;72.80
41334;BME280;27078;46.428;6.256;2023-12-28T02:11:53;97080.97;;;2.91;73.65
41334;BME280;27078;46.428;6.256;2023-12-28T02:14:20;97073.78;;;2.90;73.61
41334;BME280;27078;46.428;6.256;2023-12-28T02:16:49;97079.88;;;2.92;75.87
41334;BME280;27078;46.428;6.256;2023-12-28T02:19:27;97074.59;;;3.02;75.79
41334;BME280;27078;46.428;6.256;2023-12-28T02:21:57;97076.75;;;3.00;74.12
41334;BME280;27078;46.428;6.256;2023-12-28T02:24:24;97075.34;;;2.98;74.66
41334;BME280;27078;46.428;6.256;2023-12-28T02:26:49;97076.13;;;2.81;72.95
41334;BME280;27078;46.428;6.256;2023-12-28T02:29:15;97066.72;;;2.77;73.47
41334;BME280;27078;46.428;6.256;2023-12-28T02:31:46;97067.44;;;2.73;75.69
41334;BME280;27078;46.428;6.256;2023-12-28T02:34:21;97067.09;;;2.69;75.91
41334;BME280;27078;46.428;6.256;2023-12-28T02:36:49;97068.19;;;2.68;75.65
41334;BME280;27078;46.428;6.256;2023-12-28T02:39:16;97075.72;;;2.61;75.38
41334;BME280;27078;46.428;6.256;2023-12-28T02:41:43;97082.63;;;2.64;75.52
41334;BME280;27078;46.428;6.256;2023-12-28T02:44:10;97082.63;;;2.64;76.15
41334;BME280;27078;46.428;6.256;2023-12-28T02:46:35;97081.63;;;2.70;77.18
41334;BME280;27078;46.428;6.256;2023-12-28T02:49:01;97069.53;;;2.82;76.81
41334;BME280;27078;46.428;6.256;2023-12-28T02:51:26;97070.72;;;2.87;77.44
41334;BME280;27078;46.428;6.256;2023-12-28T02:53:51;97067.88;;;2.81;75.48
41334;BME280;27078;46.428;6.256;2023-12-28T02:56:17;97065.03;;;2.76;76.30
41334;BME280;27078;46.428;6.256;2023-12-28T02:58:42;97066.31;;;2.86;77.65
41334;BME280;27078;46.428;6.256;2023-12-28T03:01:07;97071.28;;;3.00;76.71
41334;BME280;27078;46.428;6.256;2023-12-28T03:03:33;97075.06;;;2.99;77.14
41334;BME280;27078;46.428;6.256;2023-12-28T03:05:58;97080.94;;;3.20;77.76
41334;BME280;27078;46.428;6.256;2023-12-28T03:08:24;97091.84;;;3.31;77.44
41334;BME280;27078;46.428;6.256;2023-12-28T03:10:49;97088.63;;;3.35;76.19
41334;BME280;27078;46.428;6.256;2023-12-28T03:13:14;97088.78;;;3.28;73.94
41334;BME280;27078;46.428;6.256;2023-12-28T03:15:40;97088.44;;;3.24;75.11
41334;BME280;27078;46.428;6.256;2023-12-28T03:18:05;97077.84;;;3.16;74.28
41334;BME280;27078;46.428;6.256;2023-12-28T03:20:30;97070.59;;;3.10;74.01
41334;BME280;27078;46.428;6.256;2023-12-28T03:22:56;97070.72;;;3.15;73.10
41334;BME280;27078;46.428;6.256;2023-12-28T03:25:21;97069.06;;;3.14;70.83
41334;BME280;27078;46.428;6.256;2023-12-28T03:27:46;97066.47;;;3.07;71.31
41334;BME280;27078;46.428;6.256;2023-12-28T03:30:12;97069.81;;;3.26;74.92
41334;BME280;27078;46.428;6.256;2023-12-28T03:32:37;97073.88;;;3.41;74.49
41334;BME280;27078;46.428;6.256;2023-12-28T03:35:03;97063.50;;;3.60;75.50
41334;BME280;27078;46.428;6.256;2023-12-28T03:37:29;97064.31;;;3.60;73.28
41334;BME280;27078;46.428;6.256;2023-12-28T03:39:54;97062.41;;;3.61;73.91
41334;BME280;27078;46.428;6.256;2023-12-28T03:42:19;97062.41;;;3.61;73.32
41334;BME280;27078;46.428;6.256;2023-12-28T03:44:46;97056.09;;;3.60;73.63
41334;BME280;27078;46.428;6.256;2023-12-28T03:47:12;97064.81;;;3.57;73.12
41334;BME280;27078;46.428;6.256;2023-12-28T03:49:39;97062.66;;;3.42;71.88
41334;BME280;27078;46.428;6.256;2023-12-28T03:52:04;97061.06;;;3.29;73.59
41334;BME280;27078;46.428;6.256;2023-12-28T03:54:30;97067.47;;;3.18;72.41
41334;BME280;27078;46.428;6.256;2023-12-28T03:56:55;97060.13;;;3.07;73.20
41334;BME280;27078;46.428;6.256;2023-12-28T03:59:21;97054.22;;;2.98;73.40
41334;BME280;27078;46.428;6.256;2023-12-28T04:01:46;97058.28;;;2.96;75.45
41334;BME280;27078;46.428;6.256;2023-12-28T04:04:11;97062.09;;;2.95;75.79
41334;BME280;27078;46.428;6.256;2023-12-28T04:06:37;97062.19;;;3.00;75.32
41334;BME280;27078;46.428;6.256;2023-12-28T04:09:03;97052.31;;;2.99;76.44
41334;BME280;27078;46.428;6.256;2023-12-28T04:11:29;97063.63;;;3.02;76.19
41334;BME280;27078;46.428;6.256;2023-12-28T04:13:55;97054.16;;;3.10;75.51
41334;BME280;27078;46.428;6.256;2023-12-28T04:16:20;97049.84;;;3.14;76.17
41334;BME280;27078;46.428;6.256;2023-12-28T04:18:46;97052.59;;;3.14;75.51
41334;BME280;27078;46.428;6.256;2023-12-28T04:21:12;97062.03;;;3.06;72.98
41334;BME280;27078;46.428;6.256;2023-12-28T04:23:38;97065.34;;;2.92;70.82
41334;BME280;27078;46.428;6.256;2023-12-28T04:26:04;97059.06;;;2.79;73.14
41334;BME280;27078;46.428;6.256;2023-12-28T04:28:30;97055.25;;;2.80;74.27
41334;BME280;27078;46.428;6.256;2023-12-28T04:30:55;97058.50;;;2.77;72.71
41334;BME280;27078;46.428;6.256;2023-12-28T04:33:20;97060.56;;;2.70;71.75
41334;BME280;27078;46.428;6.256;2023-12-28T04:35:46;97052.81;;;2.67;72.76
41334;BME280;27078;46.428;6.256;2023-12-28T04:38:12;97046.66;;;2.60;72.85
41334;BME280;27078;46.428;6.256;2023-12-28T04:40:37;97042.22;;;2.59;71.85
41334;BME280;27078;46.428;6.256;2023-12-28T04:43:02;97053.09;;;2.54;72.40
41334;BME280;27078;46.428;6.256;2023-12-28T04:45:28;97049.66;;;2.47;71.94
41334;BME280;27078;46.428;6.256;2023-12-28T04:47:54;97057.16;;;2.40;71.41
41334;BME280;27078;46.428;6.256;2023-12-28T04:50:19;97065.03;;;2.36;74.47
41334;BME280;27078;46.428;6.256;2023-12-28T04:52:44;97052.91;;;2.32;73.17
41334;BME280;27078;46.428;6.256;2023-12-28T04:55:10;97054.47;;;2.28;74.08
41334;BME280;27078;46.428;6.256;2023-12-28T04:57:35;97051.84;;;2.33;75.18
41334;BME280;27078;46.428;6.256;2023-12-28T05:00:00;97049.94;;;2.33;74.39
41334;BME280;27078;46.428;6.256;2023-12-28T05:02:26;97032.31;;;2.29;73.35
41334;BME280;27078;46.428;6.256;2023-12-28T05:04:51;97045.91;;;2.24;73.67
41334;BME280;27078;46.428;6.256;2023-12-28T05:07:16;97058.78;;;2.24;74.83
41334;BME280;27078;46.428;6.256;2023-12-28T05:09:42;97059.47;;;2.19;74.20
41334;BME280;27078;46.428;6.256;2023-12-28T05:12:07;97057.00;;;2.18;74.10
41334;BME280;27078;46.428;6.256;2023-12-28T05:14:32;97068.56;;;2.20;75.36
41334;BME280;27078;46.428;6.256;2023-12-28T05:16:58;97064.81;;;2.26;75.35
41334;BME280;27078;46.428;6.256;2023-12-28T05:19:23;97062.34;;;2.24;75.19
41334;BME280;27078;46.428;6.256;2023-12-28T05:21:49;97067.00;;;2.24;74.27
41334;BME280;27078;46.428;6.256;2023-12-28T05:24:14;97073.53;;;2.23;75.07
41334;BME280;27078;46.428;6.256;2023-12-28T05:26:39;97074.59;;;2.22;75.32
41334;BME280;27078;46.428;6.256;2023-12-28T05:29:05;97064.34;;;2.29;76.46
41334;BME280;27078;46.428;6.256;2023-12-28T05:31:30;97069.13;;;2.33;77.31
41334;BME280;27078;46.428;6.256;2023-12-28T05:33:56;97076.59;;;2.38;77.48
41334;BME280;27078;46.428;6.256;2023-12-28T05:36:23;97070.38;;;2.43;76.75
41334;BME280;27078;46.428;6.256;2023-12-28T05:38:48;97080.03;;;2.45;76.36
41334;BME280;27078;46.428;6.256;2023-12-28T05:41:14;97087.03;;;2.53;77.56
41334;BME280;27078;46.428;6.256;2023-12-28T05:43:39;97098.22;;;2.63;77.40
41334;BME280;27078;46.428;6.256;2023-12-28T05:46:04;97089.63;;;2.59;75.08
41334;BME280;27078;46.428;6.256;2023-12-28T05:48:30;97090.88;;;2.52;74.20
41334;BME280;27078;46.428;6.256;2023-12-28T05:50:57;97082.56;;;2.35;73.58
41334;BME280;27078;46.428;6.256;2023-12-28T05:53:23;97070.06;;;2.27;74.87
41334;BME280;27078;46.428;6.256;2023-12-28T05:55:48;97066.38;;;2.33;76.40
41334;BME280;27078;46.428;6.256;2023-12-28T05:58:14;97073.03;;;2.38;77.71
41334;BME280;27078;46.428;6.256;2023-12-28T06:00:39;97080.88;;;2.46;77.46
41334;BME280;27078;46.428;6.256;2023-12-28T06:03:05;97073.09;;;2.54;76.94
41334;BME280;27078;46.428;6.256;2023-12-28T06:05:31;97079.28;;;2.62;77.55
41334;BME280;27078;46.428;6.256;2023-12-28T06:07:56;97077.63;;;2.60;75.96
41334;BME280;27078;46.428;6.256;2023-12-28T06:10:22;97071.53;;;2.58;76.07
41334;BME280;27078;46.428;6.256;2023-12-28T06:12:47;97073.44;;;2.58;76.16
41334;BME280;27078;46.428;6.256;2023-12-28T06:15:13;97071.53;;;2.58;76.72
41334;BME280;27078;46.428;6.256;2023-12-28T06:17:38;97069.06;;;2.57;76.72
41334;BME280;27078;46.428;6.256;2023-12-28T06:20:04;97064.16;;;2.59;76.45
41334;BME280;27078;46.428;6.256;2023-12-28T06:22:30;97079.81;;;2.47;74.76
41334;BME280;27078;46.428;6.256;2023-12-28T06:24:55;97082.91;;;2.50;77.48
41334;BME280;27078;46.428;6.256;2023-12-28T06:27:21;97078.81;;;2.53;76.72
41334;BME280;27078;46.428;6.256;2023-12-28T06:29:46;97076.22;;;2.46;75.11
41334;BME280;27078;46.428;6.256;2023-12-28T06:32:12;97092.78;;;2.40;75.29
41334;BME280;27078;46.428;6.256;2023-12-28T06:34:37;97091.25;;;2.32;75.22
41334;BME280;27078;46.428;6.256;2023-12-28T06:37:03;97087.94;;;2.30;76.34
41334;BME280;27078;46.428;6.256;2023-12-28T06:39:28;97093.78;;;2.33;77.11
41334;BME280;27078;46.428;6.256;2023-12-28T06:41:54;97099.59;;;2.37;76.95
41334;BME280;27078;46.428;6.256;2023-12-28T06:44:19;97091.72;;;2.41;76.54
41334;BME280;27078;46.428;6.256;2023-12-28T06:46:45;97080.28;;;2.44;76.79
41334;BME280;27078;46.428;6.256;2023-12-28T06:49:10;97089.19;;;2.51;77.04
41334;BME280;27078;46.428;6.256;2023-12-28T06:51:35;97095.38;;;2.58;76.33
41334;BME280;27078;46.428;6.256;2023-12-28T06:54:01;97102.28;;;2.60;76.33
41334;BME280;27078;46.428;6.256;2023-12-28T06:56:26;97096.56;;;2.62;76.73
41334;BME280;27078;46.428;6.256;2023-12-28T06:58:51;97104.19;;;2.60;75.25
41334;BME280;27078;46.428;6.256;2023-12-28T07:01:17;97093.38;;;2.53;76.02
41334;BME280;27078;46.428;6.256;2023-12-28T07:03:43;97100.75;;;2.53;76.10
41334;BME280;27078;46.428;6.256;2023-12-28T07:06:08;97095.84;;;2.55;77.30
41334;BME280;27078;46.428;6.256;2023-12-28T07:08:34;97085.59;;;2.62;76.69
41334;BME280;27078;46.428;6.256;2023-12-28T07:10:59;97081.28;;;2.66;77.71
41334;BME280;27078;46.428;6.256;2023-12-28T07:13:24;97081.88;;;2.68;78.18
41334;BME280;27078;46.428;6.256;2023-12-28T07:15:50;97094.13;;;2.77;78.25
41334;BME280;27078;46.428;6.256;2023-12-28T07:18:16;97093.16;;;2.83;77.38
41334;BME280;27078;46.428;6.256;2023-12-28T07:20:41;97091.66;;;2.93;77.31
41334;BME280;27078;46.428;6.256;2023-12-28T07:23:07;97092.47;;;3.05;77.79
41334;BME280;27078;46.428;6.256;2023-12-28T07:25:33;97092.66;;;3.15;78.19
41334;BME280;27078;46.428;6.256;2023-12-28T07:27:59;97091.19;;;3.24;78.42
41334;BME280;27078;46.428;6.256;2023-12-28T07:30:24;97086.09;;;3.33;78.75
41334;BME280;27078;46.428;6.256;2023-12-28T07:32:49;97082.47;;;3.27;75.75
41334;BME280;27078;46.428;6.256;2023-12-28T07:35:15;97086.56;;;3.13;74.39
41334;BME280;27078;46.428;6.256;2023-12-28T07:37:40;97091.53;;;2.99;74.71
41334;BME280;27078;46.428;6.256;2023-12-28T07:40:06;97086.78;;;2.95;74.15
41334;BME280;27078;46.428;6.256;2023-12-28T07:42:31;97084.88;;;2.95;75.32
41334;BME280;27078;46.428;6.256;2023-12-28T07:44:57;97081.16;;;3.01;74.61
41334;BME280;27078;46.428;6.256;2023-12-28T07:47:22;97082.88;;;2.91;72.92
41334;BME280;27078;46.428;6.256;2023-12-28T07:49:48;97091.13;;;2.79;73.53
41334;BME280;27078;46.428;6.256;2023-12-28T07:52:13;97083.25;;;2.82;75.38
41334;BME280;27078;46.428;6.256;2023-12-28T07:54:38;97079.53;;;2.89;75.83
41334;BME280;27078;46.428;6.256;2023-12-28T07:57:04;97085.88;;;3.06;77.28
41334;BME280;27078;46.428;6.256;2023-12-28T07:59:29;97070.78;;;3.20;77.17
41334;BME280;27078;46.428;6.256;2023-12-28T08:01:55;97077.16;;;3.38;77.16
41334;BME280;27078;46.428;6.256;2023-12-28T08:04:20;97075.75;;;3.52;76.22
41334;BME280;27078;46.428;6.256;2023-12-28T08:06:46;97077.00;;;3.61;75.54
41334;BME280;27078;46.428;6.256;2023-12-28T08:09:11;97068.31;;;3.69;75.24
41334;BME280;27078;46.428;6.256;2023-12-28T08:11:37;97073.97;;;3.79;75.22
41334;BME280;27078;46.428;6.256;2023-12-28T08:14:02;97073.31;;;3.89;74.99
41334;BME280;27078;46.428;6.256;2023-12-28T08:16:27;97079.19;;;3.98;73.83
41334;BME280;27078;46.428;6.256;2023-12-28T08:18:53;97074.78;;;3.97;73.49
41334;BME280;27078;46.428;6.256;2023-12-28T08:21:18;97074.63;;;4.03;74.44
41334;BME280;27078;46.428;6.256;2023-12-28T08:23:44;97071.97;;;4.09;74.81
41334;BME280;27078;46.428;6.256;2023-12-28T08:26:09;97072.00;;;4.14;74.87
41334;BME280;27078;46.428;6.256;2023-12-28T08:28:35;97082.81;;;4.20;74.88
41334;BME280;27078;46.428;6.256;2023-12-28T08:31:01;97073.91;;;4.30;74.88
41334;BME280;27078;46.428;6.256;2023-12-28T08:33:26;97080.31;;;4.36;73.95
41334;BME280;27078;46.428;6.256;2023-12-28T08:35:51;97071.00;;;4.42;73.07
41334;BME280;27078;46.428;6.256;2023-12-28T08:38:17;97077.06;;;4.39;72.33
41334;BME280;27078;46.428;6.256;2023-12-28T08:40:42;97074.47;;;4.32;72.18
41334;BME280;27078;46.428;6.256;2023-12-28T08:43:09;97066.75;;;4.29;72.20
41334;BME280;27078;46.428;6.256;2023-12-28T08:45:35;97067.50;;;4.24;72.30
41334;BME280;27078;46.428;6.256;2023-12-28T08:48:01;97065.31;;;4.26;72.89
41334;BME280;27078;46.428;6.256;2023-12-28T08:50:26;97068.91;;;4.27;72.76
41334;BME280;27078;46.428;6.256;2023-12-28T08:52:51;97060.38;;;4.29;73.02
41334;BME280;27078;46.428;6.256;2023-12-28T08:55:17;97070.06;;;4.31;72.93
41334;BME280;27078;46.428;6.256;2023-12-28T08:57:42;97069.00;;;4.32;73.29
41334;BME280;27078;46.428;6.256;2023-12-28T09:00:08;97069.53;;;4.34;73.40
41334;BME280;27078;46.428;6.256;2023-12-28T09:02:33;97075.69;;;4.41;74.09
41334;BME280;27078;46.428;6.256;2023-12-28T09:04:59;97070.81;;;4.48;73.43
41334;BME280;27078;46.428;6.256;2023-12-28T09:07:24;97069.31;;;4.58;73.97
41334;BME280;27078;46.428;6.256;2023-12-28T09:09:50;97071.63;;;4.66;73.68
41334;BME280;27078;46.428;6.256;2023-12-28T09:12:15;97070.88;;;4.76;73.77
41334;BME280;27078;46.428;6.256;2023-12-28T09:14:41;97064.38;;;4.82;72.87
41334;BME280;27078;46.428;6.256;2023-12-28T09:17:06;97069.41;;;4.90;73.18
41334;BME280;27078;46.428;6.256;2023-12-28T09:19:31;97070.28;;;4.95;72.79
41334;BME280;27078;46.428;6.256;2023-12-28T09:21:57;97071.78;;;5.03;72.28
41334;BME280;27078;46.428;6.256;2023-12-28T09:24:22;97065.22;;;5.09;72.07
41334;BME280;27078;46.428;6.256;2023-12-28T09:26:47;97073.25;;;5.16;70.82
41334;BME280;27078;46.428;6.256;2023-12-28T09:29:13;97075.25;;;5.20;72.39
41334;BME280;27078;46.428;6.256;2023-12-28T09:31:39;97076.66;;;5.23;71.70
41334;BME280;27078;46.428;6.256;2023-12-28T09:34:04;97071.47;;;5.27;71.24
41334;BME280;27078;46.428;6.256;2023-12-28T09:36:30;97086.91;;;5.33;71.14
41334;BME280;27078;46.428;6.256;2023-12-28T09:38:56;97083.09;;;5.34;71.50
41334;BME280;27078;46.428;6.256;2023-12-28T09:41:22;97078.41;;;5.34;71.24
41334;BME280;27078;46.428;6.256;2023-12-28T09:44:04;97075.38;;;5.36;71.42
41334;BME280;27078;46.428;6.256;2023-12-28T09:46:32;97069.94;;;5.41;70.58
41334;BME280;27078;46.428;6.256;2023-12-28T09:48:58;97073.31;;;5.48;71.21
41334;BME280;27078;46.428;6.256;2023-12-28T09:51:24;97068.69;;;5.54;70.55
41334;BME280;27078;46.428;6.256;2023-12-28T09:53:50;97065.72;;;5.60;71.12
41334;BME280;27078;46.428;6.256;2023-12-28T09:56:16;97060.00;;;5.67;70.47
41334;BME280;27078;46.428;6.256;2023-12-28T09:58:42;97072.44;;;5.75;70.20
41334;BME280;27078;46.428;6.256;2023-12-28T10:01:09;97072.75;;;5.78;69.95
41334;BME280;27078;46.428;6.256;2023-12-28T10:03:36;97070.88;;;5.84;70.29
41334;BME280;27078;46.428;6.256;2023-12-28T10:06:01;97074.47;;;5.89;71.64
41334;BME280;27078;46.428;6.256;2023-12-28T10:08:27;97075.63;;;5.94;70.51
41334;BME280;27078;46.428;6.256;2023-12-28T10:10:52;97078.69;;;5.97;71.13
41334;BME280;27078;46.428;6.256;2023-12-28T10:13:20;97063.81;;;5.98;70.82
41334;BME280;27078;46.428;6.256;2023-12-28T10:15:47;97058.03;;;6.00;70.41
41334;BME280;27078;46.428;6.256;2023-12-28T10:18:12;97056.16;;;6.05;69.82
41334;BME280;27078;46.428;6.256;2023-12-28T10:20:38;97052.34;;;6.11;70.82
41334;BME280;27078;46.428;6.256;2023-12-28T10:23:03;97060.63;;;6.17;70.63
41334;BME280;27078;46.428;6.256;2023-12-28T10:25:31;97068.13;;;6.26;71.07
41334;BME280;27078;46.428;6.256;2023-12-28T10:27:57;97070.69;;;6.38;70.61
41334;BME280;27078;46.428;6.256;2023-12-28T10:30:23;97058.63;;;6.49;69.18
41334;BME280;27078;46.428;6.256;2023-12-28T10:32:48;97063.06;;;6.60;69.52
41334;BME280;27078;46.428;6.256;2023-12-28T10:35:14;97062.28;;;6.70;67.61
41334;BME280;27078;46.428;6.256;2023-12-28T10:37:41;97055.41;;;6.78;68.94
41334;BME280;27078;46.428;6.256;2023-12-28T10:40:14;97052.41;;;6.84;68.02
41334;BME280;27078;46.428;6.256;2023-12-28T10:43:01;97050.22;;;6.92;68.28
41334;BME280;27078;46.428;6.256;2023-12-28T10:45:29;97046.63;;;6.91;67.98
41334;BME280;27078;46.428;6.256;2023-12-28T10:48:10;97037.00;;;6.94;67.45
41334;BME280;27078;46.428;6.256;2023-12-28T10:50:39;97037.00;;;6.94;66.21
41334;BME280;27078;46.428;6.256;2023-12-28T10:58:49;97044.22;;;7.10;67.27
41334;BME280;27078;46.428;6.256;2023-12-28T11:01:22;97043.94;;;7.17;67.21
41334;BME280;27078;46.428;6.256;2023-12-28T11:03:52;97027.66;;;7.20;64.98
41334;BME280;27078;46.428;6.256;2023-12-28T11:06:21;97035.97;;;7.30;65.99
41334;BME280;27078;46.428;6.256;2023-12-28T11:08:46;97035.69;;;7.42;65.82
41334;BME280;27078;46.428;6.256;2023-12-28T11:11:17;97041.50;;;7.51;64.93
41334;BME280;27078;46.428;6.256;2023-12-28T11:13:45;97044.28;;;7.51;65.89
41334;BME280;27078;46.428;6.256;2023-12-28T11:16:11;97035.16;;;7.55;65.21
41334;BME280;27078;46.428;6.256;2023-12-28T11:18:37;97032.41;;;7.61;66.53
41334;BME280;27078;46.428;6.256;2023-12-28T11:21:03;97027.16;;;7.64;66.04
41334;BME280;27078;46.428;6.256;2023-12-28T11:23:29;97031.84;;;7.74;65.62
41334;BME280;27078;46.428;6.256;2023-12-28T11:25:54;97026.06;;;7.70;63.95
41334;BME280;27078;46.428;6.256;2023-12-28T11:28:23;97023.56;;;7.69;64.53
41334;BME280;27078;46.428;6.256;2023-12-28T11:30:48;97019.97;;;7.63;64.38
41334;BME280;27078;46.428;6.256;2023-12-28T11:33:14;97020.25;;;7.62;64.57
41334;BME280;27078;46.428;6.256;2023-12-28T11:35:39;97021.34;;;7.61;65.26
41334;BME280;27078;46.428;6.256;2023-12-28T11:38:08;97021.34;;;7.61;64.99
41334;BME280;27078;46.428;6.256;2023-12-28T11:40:47;97016.94;;;7.60;64.04
41334;BME280;27078;46.428;6.256;2023-12-28T11:43:20;97013.31;;;7.69;64.47
41334;BME280;27078;46.428;6.256;2023-12-28T11:45:51;97016.09;;;7.74;64.27
41334;BME280;27078;46.428;6.256;2023-12-28T11:48:24;97012.50;;;7.79;63.12
41334;BME280;27078;46.428;6.256;2023-12-28T11:50:55;97024.09;;;7.76;64.43
41334;BME280;27078;46.428;6.256;2023-12-28T11:53:22;97013.03;;;7.86;63.97
41334;BME280;27078;46.428;6.256;2023-12-28T11:55:48;97018.56;;;7.86;63.73
41334;BME280;27078;46.428;6.256;2023-12-28T11:58:16;97018.28;;;7.88;64.11
41334;BME280;27078;46.428;6.256;2023-12-28T12:00:41;97015.78;;;7.86;64.43
41334;BME280;27078;46.428;6.256;2023-12-28T12:03:10;97013.59;;;7.93;64.15
41334;BME280;27078;46.428;6.256;2023-12-28T12:05:35;97008.34;;;7.92;62.35
41334;BME280;27078;46.428;6.256;2023-12-28T12:08:01;97007.50;;;7.96;63.10
41334;BME280;27078;46.428;6.256;2023-12-28T12:10:26;97009.69;;;8.04;63.20
41334;BME280;27078;46.428;6.256;2023-12-28T12:12:52;97003.09;;;8.00;63.47
41334;BME280;27078;46.428;6.256;2023-12-28T12:15:18;97011.91;;;8.02;62.88
41334;BME280;27078;46.428;6.256;2023-12-28T12:17:43;97010.81;;;8.03;62.84
41334;BME280;27078;46.428;6.256;2023-12-28T12:20:09;97014.69;;;8.08;62.99
41334;BME280;27078;46.428;6.256;2023-12-28T12:22:35;97012.44;;;8.10;62.47
41334;BME280;27078;46.428;6.256;2023-12-28T12:25:02;97008.59;;;8.11;62.76
41334;BME280;27078;46.428;6.256;2023-12-28T12:27:39;97000.81;;;8.13;63.04
41334;BME280;27078;46.428;6.256;2023-12-28T12:30:05;97012.72;;;8.13;62.95
41334;BME280;27078;46.428;6.256;2023-12-28T12:32:31;96994.22;;;8.14;62.79
41334;BME280;27078;46.428;6.256;2023-12-28T12:34:57;96987.56;;;8.15;62.28
41334;BME280;27078;46.428;6.256;2023-12-28T12:37:22;96988.69;;;8.14;62.88
41334;BME280;27078;46.428;6.256;2023-12-28T12:39:49;96987.56;;;8.15;62.76
41334;BME280;27078;46.428;6.256;2023-12-28T12:42:14;96984.53;;;8.06;60.53
41334;BME280;27078;46.428;6.256;2023-12-28T12:44:40;96988.69;;;8.03;60.29
41334;BME280;27078;46.428;6.256;2023-12-28T12:47:06;96985.94;;;8.03;61.13
41334;BME280;27078;46.428;6.256;2023-12-28T12:49:32;96974.31;;;8.01;61.92
41334;BME280;27078;46.428;6.256;2023-12-28T12:51:58;96968.22;;;7.99;61.68
41334;BME280;27078;46.428;6.256;2023-12-28T12:54:23;96962.16;;;7.97;61.52
41334;BME280;27078;46.428;6.256;2023-12-28T12:56:51;96968.22;;;7.99;61.45
41334;BME280;27078;46.428;6.256;2023-12-28T12:59:17;96962.97;;;8.08;61.29
41334;BME280;27078;46.428;6.256;2023-12-28T13:01:44;96972.38;;;8.07;60.71
41334;BME280;27078;46.428;6.256;2023-12-28T13:04:10;96960.47;;;8.12;61.18
41334;BME280;27078;46.428;6.256;2023-12-28T13:06:37;96962.94;;;8.13;60.43
41334;BME280;27078;46.428;6.256;2023-12-28T13:09:03;96957.41;;;8.18;61.42